Time;durP1;ratioP1;P1;durP2;ratioP2;P2;SDS_P1;SDS_P2;PMS_P1;PMS_P2;Temp;Humidity;BMP_temperature;BMP_pressure;BME280_temperature;BME280_humidity;BME280_pressure;Samples;Min_cycle;Max_cycle;Signal;HPM_P1;HPM_P2
2023/05/09 00:01:45;;;;;;;11.95;10.23;;;;;;;;;;8217160;28;20038;-72
2023/05/09 00:05:45;;;;;;;10.93;9.80;;;;;;;;;;8215399;28;20042;-73
2023/05/09 00:09:46;;;;;;;11.55;10.35;;;;;;;;;;8217002;28;20018;-73
2023/05/09 00:13:46;;;;;;;13.75;11.05;;;;;;;;;;8217621;28;20026;-73
2023/05/09 00:17:47;;;;;;;14.55;11.05;;;;;;;;;;8213877;28;20038;-72
2023/05/09 00:21:47;;;;;;;12.13;10.68;;;;;;;;;;8220546;28;20427;-73
2023/05/09 00:25:47;;;;;;;12.25;10.77;;;;;;;;;;8214053;28;20061;-72
2023/05/09 00:29:47;;;;;;;12.10;10.73;;;;;;;;;;8228151;28;20018;-73
2023/05/09 00:33:47;;;;;;;12.48;10.43;;;;;;;;;;8223078;28;20713;-73
2023/05/09 00:37:47;;;;;;;12.07;10.88;;;;;;;;;;8230516;28;20027;-72
2023/05/09 00:41:48;;;;;;;14.55;10.63;;;;;;;;;;8215847;28;20601;-73
2023/05/09 00:45:48;;;;;;;13.75;10.18;;;;;;;;;;8216611;28;20085;-72
2023/05/09 00:49:49;;;;;;;11.80;10.60;;;;;;;;;;8220438;28;20059;-72
2023/05/09 00:53:49;;;;;;;11.70;10.50;;;;;;;;;;8215334;28;20883;-73
2023/05/09 00:57:49;;;;;;;11.95;10.75;;;;;;;;;;8223282;28;20044;-72
2023/05/09 01:01:49;;;;;;;12.13;10.93;;;;;;;;;;8222427;28;20069;-73
2023/05/09 01:06:02;;;;;;;11.40;10.20;;;;;;;;;;8218524;28;20037;-72
2023/05/09 01:10:14;;;;;;;11.65;10.45;;;;;;;;;;8220191;28;20461;-72
2023/05/09 01:14:19;;;;;;;12.98;10.63;;;;;;;;;;8220479;28;20373;-72
2023/05/09 01:18:38;;;;;;;13.45;11.27;;;;;;;;;;8247584;28;20068;-73
2023/05/09 01:22:42;;;;;;;15.63;11.48;;;;;;;;;;8261270;28;20036;-72
2023/05/09 01:26:45;;;;;;;14.38;11.18;;;;;;;;;;8257652;28;20025;-72
2023/05/09 01:30:46;;;;;;;15.40;11.07;;;;;;;;;;8254527;28;20116;-72
2023/05/09 01:34:47;;;;;;;12.75;10.68;;;;;;;;;;8253383;28;20018;-72
2023/05/09 01:38:49;;;;;;;12.18;10.70;;;;;;;;;;8252117;28;20671;-73
2023/05/09 01:42:51;;;;;;;12.70;10.88;;;;;;;;;;8257999;28;20037;-72
2023/05/09 01:46:54;;;;;;;14.68;10.93;;;;;;;;;;8263995;28;20608;-72
2023/05/09 01:50:56;;;;;;;12.63;10.88;;;;;;;;;;8255112;28;20775;-73
2023/05/09 01:54:58;;;;;;;16.08;13.10;;;;;;;;;;8256757;28;20030;-72
2023/05/09 01:58:59;;;;;;;13.38;11.30;;;;;;;;;;8251044;28;20080;-72
2023/05/09 02:03:00;;;;;;;12.98;10.73;;;;;;;;;;8256446;28;20033;-72
2023/05/09 02:07:01;;;;;;;11.60;10.35;;;;;;;;;;8263240;28;20084;-73
2023/05/09 02:11:01;;;;;;;13.13;10.80;;;;;;;;;;8257599;28;20018;-72
2023/05/09 02:15:01;;;;;;;13.47;11.40;;;;;;;;;;8252504;28;20081;-72
2023/05/09 02:19:02;;;;;;;14.70;11.80;;;;;;;;;;8254515;28;20281;-72
2023/05/09 02:23:03;;;;;;;12.32;10.85;;;;;;;;;;8259548;28;20045;-73
2023/05/09 02:27:04;;;;;;;12.27;11.00;;;;;;;;;;8266697;28;20022;-73
2023/05/09 02:31:05;;;;;;;13.05;10.77;;;;;;;;;;8250223;28;20737;-72
2023/05/09 02:35:08;;;;;;;12.20;10.90;;;;;;;;;;8251356;28;21024;-72
2023/05/09 02:39:08;;;;;;;12.52;10.95;;;;;;;;;;8252411;28;20033;-72
2023/05/09 02:43:08;;;;;;;15.88;11.00;;;;;;;;;;8252630;28;20038;-72
2023/05/09 02:47:08;;;;;;;19.02;12.43;;;;;;;;;;8251027;28;20053;-72
2023/05/09 02:51:08;;;;;;;20.23;14.07;;;;;;;;;;8251888;28;20117;-73
2023/05/09 02:55:09;;;;;;;30.73;16.85;;;;;;;;;;8252603;28;20080;-72
2023/05/09 02:59:09;;;;;;;19.48;13.32;;;;;;;;;;8259984;28;20123;-72
2023/05/09 03:03:09;;;;;;;16.60;12.75;;;;;;;;;;8254392;28;20033;-72
2023/05/09 03:07:09;;;;;;;16.55;11.75;;;;;;;;;;8255388;28;20033;-72
2023/05/09 03:11:10;;;;;;;16.48;11.40;;;;;;;;;;8254085;28;20260;-72
2023/05/09 03:15:10;;;;;;;14.57;11.18;;;;;;;;;;8254719;28;20243;-73
2023/05/09 03:19:10;;;;;;;17.85;12.88;;;;;;;;;;8256968;28;20479;-72
2023/05/09 03:23:11;;;;;;;16.53;12.90;;;;;;;;;;8248871;28;20030;-72
2023/05/09 03:27:11;;;;;;;14.27;12.73;;;;;;;;;;8251428;28;20289;-72
2023/05/09 03:31:11;;;;;;;18.70;13.20;;;;;;;;;;8250996;28;20041;-73
2023/05/09 03:35:11;;;;;;;24.02;14.93;;;;;;;;;;8252532;28;20053;-72
2023/05/09 03:39:11;;;;;;;23.92;17.27;;;;;;;;;;8252642;28;20430;-72
2023/05/09 03:43:11;;;;;;;34.05;20.20;;;;;;;;;;8250421;28;20052;-72
2023/05/09 03:47:12;;;;;;;33.45;21.70;;;;;;;;;;8256805;28;20590;-72
2023/05/09 03:51:12;;;;;;;27.80;18.77;;;;;;;;;;8257412;28;20109;-72
2023/05/09 03:55:12;;;;;;;26.23;18.17;;;;;;;;;;8248062;28;20367;-72
2023/05/09 03:59:12;;;;;;;18.92;14.45;;;;;;;;;;8249447;28;20037;-73
2023/05/09 04:03:13;;;;;;;18.02;13.77;;;;;;;;;;8254539;28;20580;-72
2023/05/09 04:07:13;;;;;;;20.88;16.08;;;;;;;;;;8247304;28;20022;-73
2023/05/09 04:11:13;;;;;;;25.02;17.42;;;;;;;;;;8246036;28;20030;-72
2023/05/09 04:15:13;;;;;;;18.00;13.97;;;;;;;;;;8247778;28;20057;-73
2023/05/09 04:19:14;;;;;;;17.38;14.32;;;;;;;;;;8245978;28;20280;-73
2023/05/09 04:23:14;;;;;;;16.67;13.85;;;;;;;;;;8258982;28;20499;-73
2023/05/09 04:27:14;;;;;;;15.50;13.55;;;;;;;;;;8248759;28;20018;-72
2023/05/09 04:31:14;;;;;;;14.63;13.13;;;;;;;;;;8251736;28;20043;-73
2023/05/09 04:35:14;;;;;;;16.50;14.40;;;;;;;;;;8247783;28;20033;-72
2023/05/09 04:39:15;;;;;;;17.73;14.10;;;;;;;;;;8249967;28;20915;-74
2023/05/09 04:43:15;;;;;;;20.40;15.75;;;;;;;;;;8213261;28;1032813;-74
2023/05/09 04:47:15;;;;;;;17.83;14.82;;;;;;;;;;8247927;28;20034;-74
2023/05/09 04:51:15;;;;;;;17.60;13.98;;;;;;;;;;8247253;28;20136;-74
2023/05/09 04:55:16;;;;;;;14.68;12.93;;;;;;;;;;8247237;28;20029;-74
2023/05/09 04:59:16;;;;;;;15.33;12.67;;;;;;;;;;8247900;28;20053;-74
2023/05/09 05:03:16;;;;;;;18.70;13.70;;;;;;;;;;8250698;28;20791;-74
2023/05/09 05:07:17;;;;;;;16.80;13.80;;;;;;;;;;8246557;28;20033;-74
2023/05/09 05:11:17;;;;;;;14.80;13.20;;;;;;;;;;8251473;28;20022;-74
2023/05/09 05:15:18;;;;;;;14.67;13.17;;;;;;;;;;8254656;28;20026;-74
2023/05/09 05:19:18;;;;;;;18.52;13.45;;;;;;;;;;8251391;28;21366;-74
2023/05/09 05:23:18;;;;;;;15.13;12.70;;;;;;;;;;8251314;28;20092;-75
2023/05/09 05:27:18;;;;;;;17.80;13.18;;;;;;;;;;8249955;28;20469;-74
2023/05/09 05:31:19;;;;;;;14.32;12.57;;;;;;;;;;8246352;28;20243;-73
2023/05/09 05:35:22;;;;;;;16.40;12.63;;;;;;;;;;8249522;28;20113;-73
2023/05/09 05:39:22;;;;;;;15.80;12.77;;;;;;;;;;8247291;28;20030;-73
2023/05/09 05:43:22;;;;;;;15.65;13.43;;;;;;;;;;8248602;28;21126;-73
2023/05/09 05:47:22;;;;;;;18.67;13.45;;;;;;;;;;8252580;28;20048;-73
2023/05/09 05:51:22;;;;;;;20.20;13.90;;;;;;;;;;8256715;28;20022;-73
2023/05/09 05:55:22;;;;;;;15.93;13.57;;;;;;;;;;8257283;28;20778;-73
2023/05/09 05:59:23;;;;;;;14.82;12.13;;;;;;;;;;8264680;28;20096;-73
2023/05/09 06:03:23;;;;;;;15.23;13.02;;;;;;;;;;8251370;28;20030;-73
2023/05/09 06:07:23;;;;;;;14.73;12.15;;;;;;;;;;8249995;28;20029;-73
2023/05/09 06:11:23;;;;;;;14.95;13.38;;;;;;;;;;8255765;28;20080;-73
2023/05/09 06:15:23;;;;;;;18.23;13.00;;;;;;;;;;8259169;28;20049;-73
2023/05/09 06:19:24;;;;;;;15.10;13.45;;;;;;;;;;8253975;28;20026;-74
2023/05/09 06:23:24;;;;;;;13.50;11.80;;;;;;;;;;8254247;28;20036;-73
2023/05/09 06:27:24;;;;;;;15.85;12.80;;;;;;;;;;8252857;28;20543;-74
2023/05/09 06:31:25;;;;;;;16.10;12.98;;;;;;;;;;8254971;28;20045;-74
2023/05/09 06:35:25;;;;;;;14.13;12.50;;;;;;;;;;8262110;28;20699;-73
2023/05/09 06:39:25;;;;;;;15.70;14.00;;;;;;;;;;8254963;28;20512;-74
2023/05/09 06:43:26;;;;;;;14.27;12.10;;;;;;;;;;8255377;28;20737;-73
2023/05/09 06:47:26;;;;;;;14.30;11.68;;;;;;;;;;8255985;28;20137;-73
2023/05/09 06:51:26;;;;;;;12.85;11.50;;;;;;;;;;8270155;28;20030;-73
2023/05/09 06:55:26;;;;;;;13.05;11.63;;;;;;;;;;8257816;28;20034;-73
2023/05/09 06:59:27;;;;;;;12.52;11.23;;;;;;;;;;8257811;28;20061;-73
2023/05/09 07:03:27;;;;;;;11.70;10.43;;;;;;;;;;8260214;28;20046;-73
2023/05/09 07:07:27;;;;;;;12.95;10.95;;;;;;;;;;8263803;28;20135;-73
2023/05/09 07:11:27;;;;;;;12.82;9.23;;;;;;;;;;8259785;28;20141;-72
2023/05/09 07:15:27;;;;;;;14.43;10.43;;;;;;;;;;8260997;28;20038;-74
2023/05/09 07:19:28;;;;;;;14.82;13.32;;;;;;;;;;8266676;28;20037;-74
2023/05/09 07:23:28;;;;;;;14.27;12.50;;;;;;;;;;8259496;28;20026;-74
2023/05/09 07:27:28;;;;;;;13.40;12.00;;;;;;;;;;8260724;28;20690;-73
2023/05/09 07:31:28;;;;;;;16.48;11.48;;;;;;;;;;8260724;28;20131;-74
2023/05/09 07:35:29;;;;;;;10.80;9.68;;;;;;;;;;8258403;28;20426;-73
2023/05/09 07:39:29;;;;;;;10.90;9.88;;;;;;;;;;8258075;28;20838;-75
2023/05/09 07:43:29;;;;;;;10.30;9.30;;;;;;;;;;8256642;28;20065;-74
2023/05/09 07:47:29;;;;;;;11.13;9.65;;;;;;;;;;8268492;28;20038;-74
2023/05/09 07:51:31;;;;;;;14.40;9.80;;;;;;;;;;8254082;28;20519;-74
2023/05/09 07:55:31;;;;;;;10.82;9.70;;;;;;;;;;8261900;28;20268;-74
2023/05/09 07:59:31;;;;;;;11.32;8.82;;;;;;;;;;8256699;28;20542;-73
2023/05/09 08:03:31;;;;;;;10.75;9.25;;;;;;;;;;8258106;28;20026;-73
2023/05/09 08:07:31;;;;;;;11.38;8.63;;;;;;;;;;8256659;28;20065;-73
2023/05/09 08:11:33;;;;;;;13.85;10.70;;;;;;;;;;8256694;28;20014;-74
2023/05/09 08:15:33;;;;;;;13.82;11.15;;;;;;;;;;8257881;28;20115;-75
2023/05/09 08:19:33;;;;;;;13.02;10.30;;;;;;;;;;8258430;28;20125;-74
2023/05/09 08:23:34;;;;;;;13.45;10.73;;;;;;;;;;8256834;28;20068;-74
2023/05/09 08:27:34;;;;;;;15.45;10.98;;;;;;;;;;8256211;28;20104;-73
2023/05/09 08:31:34;;;;;;;12.88;10.85;;;;;;;;;;8265556;28;20026;-73
2023/05/09 08:35:34;;;;;;;12.50;11.20;;;;;;;;;;8269602;28;20103;-73
2023/05/09 08:39:34;;;;;;;14.07;11.00;;;;;;;;;;8258797;28;20033;-74
2023/05/09 08:43:35;;;;;;;12.77;11.25;;;;;;;;;;8257422;28;20033;-72
2023/05/09 08:47:38;;;;;;;11.82;10.35;;;;;;;;;;8256051;28;20076;-74
2023/05/09 08:51:38;;;;;;;;;;;;;;;;;;8260759;28;20018;-74
2023/05/09 08:55:39;;;;;;;13.48;10.05;;;;;;;;;;8259488;28;20373;-74
2023/05/09 08:59:41;;;;;;;9.70;8.57;;;;;;;;;;8256743;28;20026;-73
2023/05/09 09:03:46;;;;;;;10.60;8.68;;;;;;;;;;8257670;28;20034;-73
2023/05/09 09:07:46;;;;;;;9.18;7.72;;;;;;;;;;8258831;28;20072;-74
2023/05/09 09:11:46;;;;;;;8.32;7.05;;;;;;;;;;8263391;28;20037;-74
2023/05/09 09:15:47;;;;;;;11.23;8.30;;;;;;;;;;8256802;28;20038;-74
2023/05/09 09:19:48;;;;;;;11.40;8.93;;;;;;;;;;8263989;28;20654;-73
2023/05/09 09:23:48;;;;;;;9.82;7.88;;;;;;;;;;8262705;28;20528;-73
2023/05/09 09:27:48;;;;;;;10.65;7.55;;;;;;;;;;8263726;28;20110;-74
2023/05/09 09:31:53;;;;;;;6.57;5.97;;;;;;;;;;8260534;28;20529;-74
2023/05/09 09:35:54;;;;;;;7.88;6.38;;;;;;;;;;8269113;28;20046;-74
2023/05/09 09:39:55;;;;;;;7.53;6.50;;;;;;;;;;8267743;28;20401;-73
2023/05/09 09:43:55;;;;;;;8.93;7.13;;;;;;;;;;8262994;28;20034;-75
2023/05/09 09:47:55;;;;;;;10.45;8.20;;;;;;;;;;8269796;28;20052;-74
2023/05/09 09:51:56;;;;;;;9.02;8.13;;;;;;;;;;8266302;28;20041;-74
2023/05/09 09:55:57;;;;;;;9.40;8.13;;;;;;;;;;8266160;28;20018;-73
2023/05/09 09:59:58;;;;;;;9.18;8.27;;;;;;;;;;8261184;28;20022;-74
2023/05/09 10:04:01;;;;;;;9.05;8.15;;;;;;;;;;8264138;28;20076;-74
2023/05/09 10:08:03;;;;;;;9.18;8.25;;;;;;;;;;8273578;28;20024;-73
2023/05/09 10:12:05;;;;;;;9.23;8.00;;;;;;;;;;8264330;28;20064;-74
2023/05/09 10:16:07;;;;;;;14.52;12.25;;;;;;;;;;8245959;28;20720;-74
2023/05/09 10:20:08;;;;;;;14.47;12.90;;;;;;;;;;8275369;28;20042;-75
2023/05/09 10:24:09;;;;;;;15.25;12.88;;;;;;;;;;8265865;28;20052;-74
2023/05/09 10:28:14;;;;;;;14.40;12.95;;;;;;;;;;8259816;28;20034;-75
2023/05/09 10:32:22;;;;;;;16.58;14.85;;;;;;;;;;8264156;28;20030;-75
2023/05/09 10:36:25;;;;;;;17.92;14.80;;;;;;;;;;8271529;28;20139;-74
2023/05/09 10:40:25;;;;;;;;;;;;;;;;;;8261712;28;20037;-73
2023/05/09 10:44:26;;;;;;;14.85;12.18;;;;;;;;;;8264325;28;19964;-74
2023/05/09 10:48:26;;;;;;;16.15;14.18;;;;;;;;;;8253826;28;20457;-73
2023/05/09 10:52:33;;;;;;;17.17;15.43;;;;;;;;;;8265358;28;20360;-74
2023/05/09 10:56:37;;;;;;;18.67;16.27;;;;;;;;;;8259227;28;20021;-74
2023/05/09 11:00:39;;;;;;;18.65;16.70;;;;;;;;;;8257506;28;20034;-73
2023/05/09 11:04:40;;;;;;;19.95;14.75;;;;;;;;;;8258533;28;20915;-74
2023/05/09 11:08:41;;;;;;;17.95;16.05;;;;;;;;;;8258750;28;20026;-73
2023/05/09 11:12:54;;;;;;;19.08;16.13;;;;;;;;;;8260244;28;20461;-74
2023/05/09 11:16:58;;;;;;;20.25;16.52;;;;;;;;;;8263957;28;20041;-73
2023/05/09 11:21:05;;;;;;;16.40;14.32;;;;;;;;;;8262186;28;20057;-74
2023/05/09 11:25:06;;;;;;;15.93;14.23;;;;;;;;;;8259095;28;20692;-74
2023/05/09 11:29:06;;;;;;;16.23;14.63;;;;;;;;;;8256674;28;20471;-73
2023/05/09 11:33:20;;;;;;;16.67;14.97;;;;;;;;;;8263447;28;20046;-73
2023/05/09 11:37:20;;;;;;;14.27;12.77;;;;;;;;;;8259621;28;20056;-74
2023/05/09 11:41:21;;;;;;;12.43;11.23;;;;;;;;;;8263733;28;20034;-74
2023/05/09 11:45:22;;;;;;;13.35;10.52;;;;;;;;;;8264864;28;20144;-73
2023/05/09 11:49:22;;;;;;;11.70;10.63;;;;;;;;;;8276228;28;20029;-75
2023/05/09 11:53:22;;;;;;;12.88;10.75;;;;;;;;;;8267400;28;20026;-73
2023/05/09 11:57:23;;;;;;;10.50;9.40;;;;;;;;;;8258698;28;20161;-73
2023/05/09 12:01:23;;;;;;;10.67;9.57;;;;;;;;;;8264688;28;20038;-73
2023/05/09 12:05:23;;;;;;;8.45;7.65;;;;;;;;;;8288494;28;20928;-74
2023/05/09 12:09:34;;;;;;;7.45;6.63;;;;;;;;;;8260252;28;20032;-72
2023/05/09 12:13:34;;;;;;;6.22;5.50;;;;;;;;;;8245712;28;20111;-73
2023/05/09 12:17:34;;;;;;;5.83;5.27;;;;;;;;;;8251165;28;20037;-73
2023/05/09 12:21:34;;;;;;;5.95;5.40;;;;;;;;;;8254416;28;20060;-73
2023/05/09 12:25:35;;;;;;;6.87;6.27;;;;;;;;;;8262172;28;20026;-73
2023/05/09 12:29:35;;;;;;;9.93;7.65;;;;;;;;;;8255145;28;20804;-74
2023/05/09 12:33:37;;;;;;;8.23;7.43;;;;;;;;;;8252904;28;20241;-73
2023/05/09 12:37:37;;;;;;;8.30;7.10;;;;;;;;;;8261558;28;20025;-73
2023/05/09 12:41:41;;;;;;;8.98;7.35;;;;;;;;;;8257052;28;20771;-73
2023/05/09 12:45:42;;;;;;;8.38;6.88;;;;;;;;;;8261862;28;20506;-73
2023/05/09 12:49:47;;;;;;;12.90;7.85;;;;;;;;;;8298185;28;20513;-74
2023/05/09 12:53:47;;;;;;;12.63;8.38;;;;;;;;;;8256950;28;20076;-73
2023/05/09 12:58:02;;;;;;;9.77;8.25;;;;;;;;;;8264285;28;20022;-73
2023/05/09 13:02:02;;;;;;;15.32;12.02;;;;;;;;;;8268371;28;20048;-71
2023/05/09 13:06:06;;;;;;;15.95;14.25;;;;;;;;;;8263202;28;20022;-73
2023/05/09 13:10:13;;;;;;;15.60;13.40;;;;;;;;;;8260286;28;20034;-74
2023/05/09 13:14:14;;;;;;;18.40;16.48;;;;;;;;;;8259704;28;20029;-73
2023/05/09 13:18:14;;;;;;;17.90;14.13;;;;;;;;;;8263191;28;20042;-74
2023/05/09 13:22:16;;;;;;;14.60;13.10;;;;;;;;;;8265467;28;20033;-73
2023/05/09 13:26:16;;;;;;;14.05;12.65;;;;;;;;;;8263188;28;20068;-74
2023/05/09 13:30:17;;;;;;;12.07;10.98;;;;;;;;;;8269798;28;20920;-74
2023/05/09 13:34:17;;;;;;;11.25;9.77;;;;;;;;;;8272291;28;20791;-74
2023/05/09 13:38:17;;;;;;;10.48;8.98;;;;;;;;;;8263674;28;20033;-74
2023/05/09 13:42:18;;;;;;;9.27;8.38;;;;;;;;;;8273289;28;20026;-74
2023/05/09 13:46:18;;;;;;;9.32;8.32;;;;;;;;;;8257278;28;20042;-74
2023/05/09 13:50:18;;;;;;;9.10;8.30;;;;;;;;;;8258004;28;20033;-74
2023/05/09 13:54:20;;;;;;;13.88;8.43;;;;;;;;;;8261234;28;20087;-74
2023/05/09 13:58:20;;;;;;;13.65;10.65;;;;;;;;;;8272389;28;20144;-74
2023/05/09 14:02:20;;;;;;;12.13;9.50;;;;;;;;;;8264876;28;20037;-74
2023/05/09 14:06:21;;;;;;;14.15;9.68;;;;;;;;;;8264679;28;20285;-74
2023/05/09 14:10:21;;;;;;;16.83;11.25;;;;;;;;;;8268462;28;20053;-74
2023/05/09 14:14:24;;;;;;;16.58;11.27;;;;;;;;;;8262189;28;20678;-73
2023/05/09 14:18:24;;;;;;;12.13;9.52;;;;;;;;;;8264082;28;20112;-73
2023/05/09 14:22:24;;;;;;;8.70;7.75;;;;;;;;;;8270296;28;20505;-74
2023/05/09 14:26:25;;;;;;;12.40;9.40;;;;;;;;;;8269188;28;20116;-74
2023/05/09 14:30:25;;;;;;;16.05;12.40;;;;;;;;;;8256869;28;20077;-74
2023/05/09 14:34:26;;;;;;;21.60;14.32;;;;;;;;;;8262972;28;20037;-74
2023/05/09 14:38:26;;;;;;;38.35;16.05;;;;;;;;;;8258995;28;20025;-74
2023/05/09 14:42:26;;;;;;;19.38;11.88;;;;;;;;;;8268480;28;20022;-75
2023/05/09 14:46:26;;;;;;;13.48;8.80;;;;;;;;;;8258883;28;20073;-74
2023/05/09 14:50:27;;;;;;;22.25;12.77;;;;;;;;;;8262929;28;20422;-74
2023/05/09 14:54:27;;;;;;;16.37;10.03;;;;;;;;;;8260101;28;20026;-74
2023/05/09 14:58:29;;;;;;;29.27;14.53;;;;;;;;;;8265446;28;20273;-74
2023/05/09 15:02:29;;;;;;;24.05;14.13;;;;;;;;;;8256624;28;20280;-74
2023/05/09 15:06:30;;;;;;;25.08;14.52;;;;;;;;;;8262565;28;20646;-74
2023/05/09 15:10:31;;;;;;;12.90;9.10;;;;;;;;;;8257821;28;20088;-75
2023/05/09 15:14:31;;;;;;;25.50;13.82;;;;;;;;;;8258671;28;20633;-74
2023/05/09 15:18:32;;;;;;;18.27;11.40;;;;;;;;;;8263032;28;20073;-74
2023/05/09 15:22:33;;;;;;;35.95;17.83;;;;;;;;;;8256487;28;20029;-75
2023/05/09 15:26:33;;;;;;;14.05;9.18;;;;;;;;;;8258442;28;20196;-75
2023/05/09 15:30:35;;;;;;;7.65;6.75;;;;;;;;;;8259700;28;20495;-75
2023/05/09 15:34:35;;;;;;;7.10;5.95;;;;;;;;;;8259885;28;20018;-75
2023/05/09 15:38:35;;;;;;;8.63;5.73;;;;;;;;;;8263221;28;20053;-75
2023/05/09 15:42:36;;;;;;;6.90;5.55;;;;;;;;;;8262522;28;20141;-75
2023/05/09 15:46:36;;;;;;;5.65;5.05;;;;;;;;;;8264567;28;20041;-74
2023/05/09 15:50:36;;;;;;;6.47;5.00;;;;;;;;;;8264624;28;20032;-74
2023/05/09 15:54:37;;;;;;;5.20;4.72;;;;;;;;;;8262596;28;20085;-75
2023/05/09 15:58:39;;;;;;;5.20;4.80;;;;;;;;;;8268734;28;20049;-74
2023/05/09 16:02:40;;;;;;;5.63;4.82;;;;;;;;;;8257721;28;20159;-74
2023/05/09 16:06:41;;;;;;;4.45;4.05;;;;;;;;;;8260392;28;20041;-74
2023/05/09 16:10:41;;;;;;;2.67;2.28;;;;;;;;;;8262486;28;20022;-74
2023/05/09 16:14:41;;;;;;;3.08;1.40;;;;;;;;;;8263300;28;20637;-74
2023/05/09 16:18:42;;;;;;;3.13;1.50;;;;;;;;;;8259765;28;20064;-73
2023/05/09 16:22:42;;;;;;;1.58;1.20;;;;;;;;;;8259652;28;20083;-75
2023/05/09 16:26:42;;;;;;;1.30;1.20;;;;;;;;;;8258144;28;20029;-74
2023/05/09 16:30:42;;;;;;;4.93;2.10;;;;;;;;;;8259963;28;20686;-74
2023/05/09 16:34:42;;;;;;;3.42;1.60;;;;;;;;;;8263351;28;20108;-74
2023/05/09 16:38:42;;;;;;;2.33;1.47;;;;;;;;;;8258555;28;20025;-74
2023/05/09 16:42:43;;;;;;;1.65;1.50;;;;;;;;;;8263469;28;20030;-74
2023/05/09 16:46:43;;;;;;;2.50;1.60;;;;;;;;;;8257761;28;20562;-74
2023/05/09 16:50:44;;;;;;;3.80;1.57;;;;;;;;;;8250993;28;20032;-74
2023/05/09 16:54:44;;;;;;;2.47;1.50;;;;;;;;;;8250527;28;20530;-74
2023/05/09 16:58:44;;;;;;;1.95;1.48;;;;;;;;;;8251440;28;20116;-73
2023/05/09 17:02:44;;;;;;;2.35;1.48;;;;;;;;;;8252679;28;20103;-73
2023/05/09 17:06:44;;;;;;;1.60;1.50;;;;;;;;;;8254626;28;20034;-73
2023/05/09 17:10:45;;;;;;;2.55;1.50;;;;;;;;;;8250591;28;20033;-75
2023/05/09 17:14:48;;;;;;;3.83;1.80;;;;;;;;;;8249933;28;20026;-73
2023/05/09 17:18:48;;;;;;;3.15;1.77;;;;;;;;;;8254887;28;20041;-73
2023/05/09 17:22:48;;;;;;;2.72;1.73;;;;;;;;;;8250608;28;20116;-73
2023/05/09 17:26:49;;;;;;;1.83;1.73;;;;;;;;;;8248275;28;20030;-73
2023/05/09 17:30:49;;;;;;;7.83;2.03;;;;;;;;;;8251075;28;20604;-73
2023/05/09 17:34:49;;;;;;;3.80;1.98;;;;;;;;;;8251330;28;20396;-73
2023/05/09 17:38:49;;;;;;;2.10;1.70;;;;;;;;;;8251951;28;20441;-74
2023/05/09 17:42:50;;;;;;;2.25;1.70;;;;;;;;;;8250607;28;20033;-74
2023/05/09 17:46:50;;;;;;;2.10;1.52;;;;;;;;;;8249630;28;20465;-74
2023/05/09 17:50:51;;;;;;;1.52;1.40;;;;;;;;;;8251990;28;20018;-73
2023/05/09 17:54:51;;;;;;;1.92;1.33;;;;;;;;;;8252049;28;20060;-73
2023/05/09 17:58:52;;;;;;;1.77;1.60;;;;;;;;;;8252334;28;20620;-73
2023/05/09 18:02:52;;;;;;;1.40;1.30;;;;;;;;;;8253971;28;20030;-73
2023/05/09 18:06:53;;;;;;;2.55;1.30;;;;;;;;;;8249086;28;20032;-73
2023/05/09 18:10:53;;;;;;;1.47;1.30;;;;;;;;;;8258938;28;20078;-73
2023/05/09 18:14:54;;;;;;;6.07;1.30;;;;;;;;;;8251742;28;20028;-73
2023/05/09 18:18:54;;;;;;;1.20;1.10;;;;;;;;;;8247962;28;20920;-74
2023/05/09 18:22:55;;;;;;;7.53;1.40;;;;;;;;;;8252537;28;20026;-73
2023/05/09 18:26:56;;;;;;;2.97;1.38;;;;;;;;;;8249636;28;20152;-73
2023/05/09 18:30:57;;;;;;;3.47;1.10;;;;;;;;;;8245363;28;20913;-73
2023/05/09 18:34:57;;;;;;;1.20;1.10;;;;;;;;;;8251591;28;20022;-73
2023/05/09 18:38:57;;;;;;;2.95;1.00;;;;;;;;;;8248094;28;20021;-73
2023/05/09 18:42:57;;;;;;;1.40;1.30;;;;;;;;;;8247026;28;20116;-73
2023/05/09 18:46:57;;;;;;;1.30;1.20;;;;;;;;;;8257861;28;20482;-73
2023/05/09 18:50:57;;;;;;;2.05;1.20;;;;;;;;;;8250855;28;20021;-73
2023/05/09 18:54:58;;;;;;;1.20;1.10;;;;;;;;;;8250988;28;20018;-74
2023/05/09 18:58:58;;;;;;;1.30;1.20;;;;;;;;;;8248484;28;20036;-73
2023/05/09 19:02:58;;;;;;;2.17;1.30;;;;;;;;;;8253169;28;20049;-73
2023/05/09 19:06:58;;;;;;;2.13;1.15;;;;;;;;;;8259377;28;20398;-73
2023/05/09 19:10:58;;;;;;;2.70;1.00;;;;;;;;;;8255517;28;20018;-73
2023/05/09 19:14:59;;;;;;;4.00;1.23;;;;;;;;;;8247997;28;20910;-73
2023/05/09 19:18:59;;;;;;;1.10;1.05;;;;;;;;;;8256238;28;20093;-73
2023/05/09 19:23:00;;;;;;;1.00;1.00;;;;;;;;;;8263186;28;20026;-73
2023/05/09 19:27:00;;;;;;;0.90;0.90;;;;;;;;;;8245560;28;20068;-73
2023/05/09 19:31:01;;;;;;;5.47;0.90;;;;;;;;;;8247169;28;20171;-73
2023/05/09 19:35:01;;;;;;;2.35;1.20;;;;;;;;;;8247056;28;20407;-73
2023/05/09 19:39:01;;;;;;;2.08;0.80;;;;;;;;;;8242111;28;20557;-73
2023/05/09 19:43:01;;;;;;;0.88;0.88;;;;;;;;;;8243202;28;20029;-73
2023/05/09 19:47:04;;;;;;;1.20;0.90;;;;;;;;;;8245209;28;20034;-72
2023/05/09 19:51:04;;;;;;;3.42;1.08;;;;;;;;;;8243925;28;20450;-73
2023/05/09 19:55:04;;;;;;;1.83;0.80;;;;;;;;;;8250355;28;20025;-72
2023/05/09 19:59:05;;;;;;;0.88;0.80;;;;;;;;;;8242730;28;20025;-73
2023/05/09 20:03:05;;;;;;;0.80;0.80;;;;;;;;;;8245266;28;20517;-73
2023/05/09 20:07:05;;;;;;;2.60;0.80;;;;;;;;;;8249396;28;20026;-73
2023/05/09 20:11:06;;;;;;;0.70;0.70;;;;;;;;;;8250804;28;20022;-72
2023/05/09 20:15:07;;;;;;;1.13;0.77;;;;;;;;;;8252877;28;20030;-73
2023/05/09 20:19:07;;;;;;;1.13;0.80;;;;;;;;;;8245536;28;20026;-73
2023/05/09 20:23:08;;;;;;;1.15;0.90;;;;;;;;;;8261391;28;20152;-73
2023/05/09 20:27:08;;;;;;;1.30;0.80;;;;;;;;;;8245633;28;20776;-73
2023/05/09 20:31:08;;;;;;;0.75;0.75;;;;;;;;;;8248445;28;20046;-73
2023/05/09 20:35:09;;;;;;;1.03;0.80;;;;;;;;;;8249346;28;20069;-73
2023/05/09 20:39:09;;;;;;;0.75;0.75;;;;;;;;;;8244936;28;20280;-73
2023/05/09 20:43:09;;;;;;;0.90;0.70;;;;;;;;;;8243446;28;20402;-73
2023/05/09 20:47:10;;;;;;;2.60;0.80;;;;;;;;;;8245487;28;20042;-73
2023/05/09 20:51:10;;;;;;;3.03;0.80;;;;;;;;;;8243384;28;20030;-74
2023/05/09 20:55:10;;;;;;;1.17;1.05;;;;;;;;;;8247078;28;20022;-73
2023/05/09 20:59:10;;;;;;;2.10;0.80;;;;;;;;;;8241946;28;20053;-74
2023/05/09 21:03:10;;;;;;;0.88;0.88;;;;;;;;;;8245098;28;20699;-72
2023/05/09 21:07:11;;;;;;;1.33;0.80;;;;;;;;;;8243735;28;20045;-72
2023/05/09 21:11:11;;;;;;;1.38;0.93;;;;;;;;;;8259042;28;20022;-72
2023/05/09 21:15:12;;;;;;;3.63;0.70;;;;;;;;;;8245547;28;20041;-73
2023/05/09 21:19:12;;;;;;;3.95;0.70;;;;;;;;;;8255171;28;20824;-72
2023/05/09 21:23:13;;;;;;;1.20;0.70;;;;;;;;;;8253675;28;20144;-72
2023/05/09 21:27:13;;;;;;;3.92;0.60;;;;;;;;;;8255909;28;20516;-72
2023/05/09 21:31:13;;;;;;;3.80;0.60;;;;;;;;;;8261176;28;20060;-72
2023/05/09 21:35:14;;;;;;;2.37;0.70;;;;;;;;;;8259353;28;20032;-72
2023/05/09 21:39:14;;;;;;;6.93;0.70;;;;;;;;;;8250535;28;20285;-72
2023/05/09 21:43:16;;;;;;;2.63;0.75;;;;;;;;;;8255810;28;20791;-72
2023/05/09 21:47:17;;;;;;;2.38;0.90;;;;;;;;;;8248471;28;20108;-73
2023/05/09 21:51:17;;;;;;;0.60;0.60;;;;;;;;;;8251465;28;20021;-72
2023/05/09 21:55:17;;;;;;;0.98;0.98;;;;;;;;;;8255777;28;20130;-72
2023/05/09 21:59:19;;;;;;;0.63;0.60;;;;;;;;;;8237584;28;20026;-72
2023/05/09 22:03:19;;;;;;;1.45;0.52;;;;;;;;;;8184282;28;20149;-73
2023/05/09 22:07:20;;;;;;;0.60;0.60;;;;;;;;;;8187620;28;20065;-73
2023/05/09 22:11:21;;;;;;;2.67;0.55;;;;;;;;;;8160746;28;20050;-73
2023/05/09 22:15:21;;;;;;;0.50;0.50;;;;;;;;;;8190929;28;20883;-73
2023/05/09 22:19:21;;;;;;;0.50;0.50;;;;;;;;;;8143603;28;20103;-72
2023/05/09 22:23:21;;;;;;;0.68;0.50;;;;;;;;;;8155479;28;20026;-73
2023/05/09 22:27:21;;;;;;;0.60;0.50;;;;;;;;;;8156434;28;20027;-72
2023/05/09 22:31:21;;;;;;;0.50;0.50;;;;;;;;;;8156025;28;20043;-73
2023/05/09 22:35:22;;;;;;;0.50;0.50;;;;;;;;;;8154124;28;20047;-72
2023/05/09 22:39:22;;;;;;;0.67;0.67;;;;;;;;;;8153420;28;20046;-72
2023/05/09 22:43:22;;;;;;;2.92;0.68;;;;;;;;;;8165103;28;20054;-72
2023/05/09 22:47:22;;;;;;;0.50;0.50;;;;;;;;;;8160674;28;20054;-72
2023/05/09 22:51:22;;;;;;;0.50;0.50;;;;;;;;;;8141432;28;20122;-73
2023/05/09 22:55:23;;;;;;;0.50;0.50;;;;;;;;;;8170866;28;20109;-73
2023/05/09 22:59:23;;;;;;;0.60;0.60;;;;;;;;;;8184499;28;20070;-73
2023/05/09 23:03:23;;;;;;;1.60;0.50;;;;;;;;;;8144344;28;20855;-72
2023/05/09 23:07:23;;;;;;;1.50;0.70;;;;;;;;;;8153054;28;20083;-72
2023/05/09 23:11:24;;;;;;;1.75;0.50;;;;;;;;;;8155540;28;20031;-72
2023/05/09 23:15:24;;;;;;;0.43;0.43;;;;;;;;;;8152088;28;20770;-72
2023/05/09 23:19:24;;;;;;;1.73;0.63;;;;;;;;;;8156730;28;20054;-72
2023/05/09 23:23:25;;;;;;;2.25;0.63;;;;;;;;;;8154769;28;20039;-73
2023/05/09 23:27:26;;;;;;;1.58;0.70;;;;;;;;;;8154199;28;20149;-72
2023/05/09 23:31:26;;;;;;;0.50;0.50;;;;;;;;;;8157763;28;20130;-73
2023/05/09 23:35:26;;;;;;;1.55;0.60;;;;;;;;;;8156215;28;20051;-73
2023/05/09 23:39:26;;;;;;;0.50;0.50;;;;;;;;;;8150254;28;20086;-72
2023/05/09 23:43:27;;;;;;;0.47;0.47;;;;;;;;;;8155372;28;20035;-72